createdAt,value
2018-12-24T00:22:04.080Z,99882.95
2018-12-24T00:39:27.528Z,99885.27
2018-12-24T00:42:03.505Z,99887.55
2018-12-24T00:51:28.369Z,99877.30
2018-12-24T00:58:15.859Z,99885.89
2018-12-24T01:00:48.924Z,99880.69
2018-12-24T01:03:22.008Z,99871.26
2018-12-24T01:05:54.902Z,99862.96
2018-12-24T01:08:28.277Z,99871.43
2018-12-24T01:11:01.681Z,99869.47
2018-12-24T01:13:34.634Z,99873.34
2018-12-24T01:16:07.964Z,99869.96
2018-12-24T01:18:40.913Z,99879.53
2018-12-24T01:21:14.364Z,99880.94
2018-12-24T01:23:47.497Z,99878.57
2018-12-24T01:26:20.657Z,99876.20
2018-12-24T01:28:54.023Z,99875.82
2018-12-24T01:31:26.995Z,99873.00
2018-12-24T01:33:59.926Z,99868.34
2018-12-24T01:36:32.932Z,99861.41
2018-12-24T01:39:06.535Z,99862.20
2018-12-24T01:41:39.995Z,99855.16
2018-12-24T01:44:13.492Z,99853.02
2018-12-24T01:46:46.627Z,99861.08
2018-12-24T01:49:19.769Z,99856.41
2018-12-24T01:51:55.620Z,99849.90
2018-12-24T01:54:28.839Z,99855.23
2018-12-24T01:57:01.974Z,99848.60
2018-12-24T01:59:58.282Z,99850.63
2018-12-24T02:02:42.312Z,99850.69
2018-12-24T02:05:16.724Z,99853.80
2018-12-24T02:07:49.898Z,99844.30
2018-12-24T02:10:22.755Z,99833.37
2018-12-24T02:13:15.456Z,99836.80
2018-12-24T02:15:48.335Z,99827.69
2018-12-24T02:18:21.289Z,99829.66
2018-12-24T02:20:54.393Z,99822.89
2018-12-24T02:23:32.537Z,99832.05
2018-12-24T02:26:06.100Z,99819.74
2018-12-24T02:29:09.453Z,99812.39
2018-12-24T02:31:44.186Z,99812.39
2018-12-24T02:34:17.177Z,99812.88
2018-12-24T02:36:50.185Z,99813.80
2018-12-24T02:39:23.056Z,99806.64
2018-12-24T02:41:56.030Z,99804.66
2018-12-24T02:44:28.992Z,99800.52
2018-12-24T02:47:12.881Z,99792.91
2018-12-24T02:49:50.348Z,99787.35
2018-12-24T02:52:23.464Z,99789.64
2018-12-24T02:54:56.702Z,99786.27
2018-12-24T02:57:29.969Z,99785.16
2018-12-24T03:00:03.087Z,99772.42
2018-12-24T03:02:36.201Z,99767.88
2018-12-24T03:05:09.422Z,99760.14
2018-12-24T03:07:42.585Z,99748.48
2018-12-24T03:10:15.705Z,99747.80
2018-12-24T03:12:48.771Z,99747.63
2018-12-24T03:15:21.865Z,99733.59
2018-12-24T03:17:54.865Z,99735.67
2018-12-24T03:20:27.801Z,99730.30
2018-12-24T03:23:00.988Z,99719.95
2018-12-24T03:25:34.295Z,99709.19
2018-12-24T03:28:07.124Z,99709.53
2018-12-24T03:30:41.306Z,99701.08
2018-12-24T03:33:14.431Z,99695.25
2018-12-24T03:35:47.720Z,99690.45
2018-12-24T03:38:20.677Z,99686.75
2018-12-24T03:40:54.078Z,99682.48
2018-12-24T03:43:27.142Z,99679.61
2018-12-24T03:46:00.693Z,99669.54
2018-12-24T03:48:33.722Z,99657.93
2018-12-24T03:51:07.081Z,99656.98
2018-12-24T03:53:40.174Z,99651.64
2018-12-24T03:56:13.249Z,99649.53
2018-12-24T03:58:46.685Z,99644.14
2018-12-24T04:01:19.615Z,99641.13
2018-12-24T04:03:52.565Z,99642.63
2018-12-24T04:06:25.594Z,99634.84
2018-12-24T04:08:58.838Z,99627.41
2018-12-24T04:11:32.353Z,99628.58
2018-12-24T04:14:05.570Z,99623.55
2018-12-24T04:16:38.516Z,99620.06
2018-12-24T04:19:11.680Z,99613.47
2018-12-24T04:21:48.690Z,99611.34
2018-12-24T04:24:21.725Z,99605.30
2018-12-24T04:26:55.501Z,99597.53
2018-12-24T04:29:28.695Z,99600.36
2018-12-24T04:32:01.865Z,99596.44
2018-12-24T04:34:35.362Z,99588.03
2018-12-24T04:37:08.529Z,99588.38
2018-12-24T04:39:41.632Z,99586.92
2018-12-24T04:42:14.668Z,99584.78
2018-12-24T04:45:06.993Z,99585.66
2018-12-24T04:47:40.295Z,99569.36
2018-12-24T04:50:13.147Z,99569.38
2018-12-24T04:52:46.228Z,99567.03
2018-12-24T04:55:19.447Z,99574.20
2018-12-24T04:57:52.462Z,99556.97
2018-12-24T05:00:25.639Z,99560.75
2018-12-24T05:02:58.890Z,99551.37
2018-12-24T05:05:32.532Z,99561.12
2018-12-24T05:08:05.697Z,99554.89
2018-12-24T05:10:38.681Z,99553.38
2018-12-24T05:13:11.777Z,99544.90
2018-12-24T05:15:48.099Z,99544.20
2018-12-24T05:18:20.989Z,99534.78
2018-12-24T05:20:54.512Z,99538.48
2018-12-24T05:23:27.696Z,99525.19
2018-12-24T05:26:00.753Z,99521.61
2018-12-24T05:28:33.647Z,99520.45
2018-12-24T05:31:06.568Z,99524.68
2018-12-24T05:33:42.008Z,99524.84
2018-12-24T05:36:13.830Z,99510.16
2018-12-24T05:38:46.931Z,99513.20
2018-12-24T05:41:20.179Z,99506.20
2018-12-24T05:43:52.919Z,99504.05
2018-12-24T05:46:26.028Z,99501.31
2018-12-24T05:48:59.039Z,99493.59
2018-12-24T05:51:32.414Z,99488.50
2018-12-24T05:54:05.491Z,99493.21
2018-12-24T05:56:38.773Z,99489.33
2018-12-24T05:59:11.786Z,99489.66
2018-12-24T06:02:07.154Z,99478.84
2018-12-24T06:04:40.198Z,99476.06
2018-12-24T06:07:13.705Z,99478.45
2018-12-24T06:09:47.256Z,99479.88
2018-12-24T06:12:20.344Z,99473.33
2018-12-24T06:14:53.510Z,99467.16
2018-12-24T06:17:26.497Z,99472.61
2018-12-24T06:19:59.762Z,99465.56
2018-12-24T06:22:32.876Z,99467.16
2018-12-24T06:25:05.970Z,99462.20
2018-12-24T06:27:39.180Z,99460.23
2018-12-24T06:30:12.614Z,99464.31
2018-12-24T06:32:46.115Z,99452.59
2018-12-24T06:35:19.150Z,99453.47
2018-12-24T06:37:52.101Z,99451.33
2018-12-24T06:40:25.158Z,99444.11
2018-12-24T06:42:58.516Z,99445.41
2018-12-24T06:45:31.638Z,99455.51
2018-12-24T06:48:04.737Z,99452.95
2018-12-24T06:50:37.804Z,99445.98
2018-12-24T06:53:10.798Z,99449.17
2018-12-24T06:55:43.946Z,99443.89
2018-12-24T06:58:16.938Z,99449.02
2018-12-24T07:00:50.308Z,99445.41
2018-12-24T07:03:23.398Z,99442.59
2018-12-24T07:05:56.519Z,99446.05
2018-12-24T07:08:29.689Z,99441.08
2018-12-24T07:11:02.835Z,99439.23
2018-12-24T07:13:36.172Z,99442.66
2018-12-24T07:16:09.294Z,99437.05
2018-12-24T07:18:42.362Z,99433.20
2018-12-24T07:21:15.308Z,99432.25
2018-12-24T07:23:48.289Z,99435.92
2018-12-24T07:26:21.396Z,99424.16
2018-12-24T07:28:58.999Z,99423.22
2018-12-24T07:31:28.659Z,99422.44
2018-12-24T07:34:01.857Z,99421.72
2018-12-24T07:36:37.301Z,99416.66
2018-12-24T07:39:09.896Z,99406.53
2018-12-24T07:41:43.174Z,99402.02
2018-12-24T07:44:23.910Z,99390.77
2018-12-24T07:46:50.675Z,99388.24
2018-12-24T07:49:23.789Z,99379.59
2018-12-24T07:51:56.796Z,99371.91
2018-12-24T07:54:29.969Z,99362.87
2018-12-24T07:57:03.278Z,99361.28
2018-12-24T08:02:26.338Z,99350.42
2018-12-24T08:04:59.543Z,99349.39
2018-12-24T08:07:32.559Z,99348.92
2018-12-24T08:10:05.621Z,99342.21
2018-12-24T08:12:38.747Z,99342.66
2018-12-24T08:15:12.154Z,99345.55
2018-12-24T08:17:45.422Z,99342.31
2018-12-24T08:20:18.678Z,99343.34
2018-12-24T08:22:54.652Z,99338.04
2018-12-24T08:25:27.580Z,99347.30
2018-12-24T08:28:00.705Z,99346.94
2018-12-24T08:30:33.708Z,99339.78
2018-12-24T08:33:06.741Z,99339.94
2018-12-24T08:35:39.504Z,99337.20
2018-12-24T08:38:12.478Z,99331.06
2018-12-24T08:40:45.298Z,99325.44
2018-12-24T08:43:18.316Z,99317.30
2018-12-24T08:45:51.373Z,99321.92
2018-12-24T08:48:24.654Z,99317.02
2018-12-24T08:50:57.584Z,99318.07
2018-12-24T08:53:30.556Z,99318.13
2018-12-24T08:56:03.655Z,99322.17
2018-12-24T08:58:36.594Z,99315.54
2018-12-24T09:01:09.783Z,99306.68
2018-12-24T09:03:42.774Z,99312.61
2018-12-24T09:06:15.781Z,99313.75
2018-12-24T09:08:49.392Z,99308.80
2018-12-24T09:11:22.567Z,99307.66
2018-12-24T09:13:55.620Z,99303.91
2018-12-24T09:16:28.562Z,99306.92
2018-12-24T09:19:04.336Z,99305.31
2018-12-24T09:21:37.455Z,99309.11
2018-12-24T09:24:10.303Z,99316.70
2018-12-24T09:26:43.313Z,99305.59
2018-12-24T09:29:16.407Z,99299.37
2018-12-24T09:31:49.272Z,99295.78
2018-12-24T09:34:22.242Z,99298.84
2018-12-24T09:36:55.151Z,99293.37
2018-12-24T09:39:28.160Z,99280.38
2018-12-24T09:42:01.217Z,99280.60
2018-12-24T09:44:34.558Z,99284.84
2018-12-24T09:47:07.657Z,99291.14
2018-12-24T09:49:40.712Z,99279.57
2018-12-24T09:52:14.735Z,99275.41
2018-12-24T09:54:47.843Z,99264.98
2018-12-24T09:57:21.083Z,99262.06
2018-12-24T09:59:54.180Z,99268.02
2018-12-24T10:02:29.904Z,99260.78
2018-12-24T10:05:03.039Z,99257.01
2018-12-24T10:07:35.959Z,99256.91
2018-12-24T10:10:11.030Z,99259.92
2018-12-24T10:12:44.054Z,99256.02
2018-12-24T10:15:16.950Z,99250.03
2018-12-24T10:17:49.966Z,99250.51
2018-12-24T10:20:23.006Z,99255.45
2018-12-24T10:22:56.190Z,99243.95
2018-12-24T10:25:29.307Z,99243.89
2018-12-24T10:28:02.157Z,99243.06
2018-12-24T10:30:35.217Z,99240.05
2018-12-24T10:33:08.177Z,99236.64
2018-12-24T10:35:41.127Z,99233.95
2018-12-24T10:38:14.063Z,99230.95
2018-12-24T10:40:49.852Z,99221.55
2018-12-24T10:43:22.855Z,99223.15
2018-12-24T10:45:56.037Z,99224.21
2018-12-24T10:48:29.638Z,99217.81
2018-12-24T10:51:02.809Z,99220.71
2018-12-24T10:53:36.245Z,99218.17
2018-12-24T10:56:09.233Z,99220.31
2018-12-24T10:58:42.720Z,99213.36
2018-12-24T11:01:15.704Z,99212.12
2018-12-24T11:03:50.747Z,99211.27
2018-12-24T11:06:23.684Z,99205.17
2018-12-24T11:08:56.622Z,99208.66
2018-12-24T11:11:30.135Z,99209.37
2018-12-24T11:14:02.942Z,99199.86
2018-12-24T11:16:35.928Z,99208.16
2018-12-24T11:19:08.884Z,99204.14
2018-12-24T11:21:42.073Z,99210.98
2018-12-24T11:24:15.670Z,99203.16
2018-12-24T11:26:49.333Z,99200.94
2018-12-24T11:29:22.367Z,99192.31
2018-12-24T11:31:55.523Z,99198.67
2018-12-24T11:34:28.756Z,99195.80
2018-12-24T11:37:01.922Z,99184.89
2018-12-24T11:39:34.897Z,99183.02
2018-12-24T11:42:08.426Z,99189.98
2018-12-24T11:44:41.704Z,99183.23
2018-12-24T11:47:15.121Z,99183.23
2018-12-24T11:49:48.229Z,99175.82
2018-12-24T11:52:21.608Z,99174.19
2018-12-24T11:54:54.696Z,99172.84
2018-12-24T11:57:27.696Z,99176.38
2018-12-24T12:00:00.800Z,99168.44
2018-12-24T12:02:33.663Z,99168.86
2018-12-24T12:05:06.971Z,99168.81
2018-12-24T12:07:40.105Z,99160.08
2018-12-24T12:10:13.434Z,99158.98
2018-12-24T12:12:46.626Z,99163.45
2018-12-24T12:15:19.661Z,99154.31
2018-12-24T12:17:52.780Z,99160.17
2018-12-24T12:20:25.812Z,99155.00
2018-12-24T12:22:58.619Z,99155.92
2018-12-24T12:25:31.747Z,99155.31
2018-12-24T12:28:04.781Z,99155.36
2018-12-24T12:30:38.320Z,99146.84
2018-12-24T12:33:11.641Z,99148.45
2018-12-24T12:35:44.950Z,99155.04
2018-12-24T12:38:18.464Z,99157.89
2018-12-24T12:40:51.697Z,99163.45
2018-12-24T12:43:24.782Z,99152.41
2018-12-24T12:45:57.662Z,99150.34
2018-12-24T12:48:30.730Z,99147.08
2018-12-24T12:51:03.696Z,99141.55
2018-12-24T12:53:36.804Z,99132.63
2018-12-24T12:56:09.825Z,99128.64
2018-12-24T12:58:42.860Z,99128.04
2018-12-24T13:01:15.986Z,99122.57
2018-12-24T13:03:49.062Z,99106.67
2018-12-24T13:06:22.134Z,99104.86
2018-12-24T13:08:55.257Z,99103.30
2018-12-24T13:11:28.174Z,99105.52
2018-12-24T13:14:01.378Z,99102.09
2018-12-24T13:16:34.485Z,99096.20
2018-12-24T13:19:07.714Z,99091.53
2018-12-24T13:21:41.945Z,99090.47
2018-12-24T13:24:15.131Z,99089.73
2018-12-24T13:26:48.170Z,99080.33
2018-12-24T13:29:21.163Z,99075.23
2018-12-24T13:31:54.586Z,99073.09
2018-12-24T13:34:27.779Z,99069.36
2018-12-24T13:37:00.890Z,99069.36
2018-12-24T13:39:33.877Z,99072.73
2018-12-24T13:42:06.760Z,99066.39
2018-12-24T13:44:40.065Z,99055.30
2018-12-24T13:47:13.267Z,99056.31
2018-12-24T13:49:46.313Z,99061.88
2018-12-24T13:52:19.516Z,99065.70
2018-12-24T13:54:52.793Z,99069.02
2018-12-24T13:57:26.411Z,99059.03
2018-12-24T13:59:59.619Z,99059.15
2018-12-24T14:02:32.595Z,99055.48
2018-12-24T14:05:05.500Z,99060.61
2018-12-24T14:07:38.502Z,99059.03
2018-12-24T14:10:11.514Z,99059.66
2018-12-24T14:12:44.694Z,99049.25
2018-12-24T14:15:17.591Z,99056.05
2018-12-24T14:17:50.622Z,99052.23
2018-12-24T14:20:23.676Z,99048.59
2018-12-24T14:22:56.794Z,99043.52
2018-12-24T14:25:29.762Z,99040.06
2018-12-24T14:28:03.124Z,99033.97
2018-12-24T14:30:39.158Z,99025.22
2018-12-24T14:33:12.175Z,99021.19
2018-12-24T14:35:45.162Z,99012.37
2018-12-24T14:38:17.964Z,99014.82
2018-12-24T14:40:51.625Z,99012.38
2018-12-24T14:43:25.020Z,99005.14
2018-12-24T14:45:58.100Z,99006.86
2018-12-24T14:48:31.109Z,99003.31
2018-12-24T14:51:04.208Z,99002.89
2018-12-24T14:53:37.466Z,98998.02
2018-12-24T14:56:10.487Z,98987.30
2018-12-24T14:58:43.361Z,98994.42
2018-12-24T15:01:16.594Z,98988.30
2018-12-24T15:03:49.800Z,98993.48
2018-12-24T15:06:22.822Z,98990.83
2018-12-24T15:08:55.796Z,98982.03
2018-12-24T15:11:28.735Z,98992.98
2018-12-24T15:14:02.364Z,98983.98
2018-12-24T15:16:35.947Z,98988.52
2018-12-24T15:19:09.142Z,98979.34
2018-12-24T15:21:42.298Z,98973.16
2018-12-24T15:24:15.574Z,98971.06
2018-12-24T15:26:48.670Z,98961.58
2018-12-24T15:29:21.675Z,98962.81
2018-12-24T15:31:54.755Z,98969.97
2018-12-24T15:34:27.679Z,98967.25
2018-12-24T15:37:00.665Z,98963.91
2018-12-24T15:39:33.554Z,98968.25
2018-12-24T15:42:06.580Z,98969.30
2018-12-24T15:44:39.533Z,98958.59
2018-12-24T15:47:12.876Z,98958.59
2018-12-24T15:49:46.317Z,98954.78
2018-12-24T15:52:19.176Z,98950.72
2018-12-24T15:54:52.309Z,98958.66
2018-12-24T15:57:25.339Z,98946.07
2018-12-24T15:59:58.320Z,98948.03
2018-12-24T16:02:31.556Z,98945.88
2018-12-24T16:05:07.293Z,98944.48
2018-12-24T16:07:40.379Z,98943.55
2018-12-24T16:10:13.469Z,98942.42
2018-12-24T16:12:46.558Z,98931.70
2018-12-24T16:15:19.595Z,98940.89
2018-12-24T16:17:52.702Z,98933.44
2018-12-24T16:20:25.948Z,98934.52
2018-12-24T16:22:58.987Z,98940.97
2018-12-24T16:25:31.945Z,98929.25
2018-12-24T16:28:04.732Z,98929.67
2018-12-24T16:30:37.703Z,98927.01
2018-12-24T16:33:11.607Z,98925.27
2018-12-24T16:35:44.598Z,98920.28
2018-12-24T16:38:17.565Z,98926.77
2018-12-24T16:40:50.707Z,98925.03
2018-12-24T16:43:24.168Z,98932.63
2018-12-24T16:45:57.260Z,98923.70
2018-12-24T16:48:30.605Z,98927.98
2018-12-24T16:51:03.752Z,98926.71
2018-12-24T16:53:40.620Z,98929.51
2018-12-24T16:56:12.481Z,98932.34
2018-12-24T16:58:45.431Z,98934.71
2018-12-24T17:01:18.839Z,98937.04
2018-12-24T17:03:52.003Z,98931.72
2018-12-24T17:06:25.007Z,98926.16
2018-12-24T17:09:00.123Z,98929.33
2018-12-24T17:11:32.656Z,98927.55
2018-12-24T17:14:05.899Z,98927.96
2018-12-24T17:16:39.072Z,98924.16
2018-12-24T17:19:15.597Z,98916.15
2018-12-24T17:21:48.436Z,98923.48
2018-12-24T17:24:21.783Z,98923.73
2018-12-24T17:26:55.019Z,98925.09
2018-12-24T17:29:28.068Z,98930.30
2018-12-24T17:32:01.253Z,98929.23
2018-12-24T17:34:34.173Z,98930.19
2018-12-24T17:37:06.739Z,98932.19
2018-12-24T17:39:40.217Z,98933.22
2018-12-24T17:42:13.456Z,98931.67
2018-12-24T17:44:46.322Z,98930.23
2018-12-24T17:47:20.146Z,98935.54
2018-12-24T17:49:53.253Z,98934.55
2018-12-24T17:52:26.410Z,98933.05
2018-12-24T17:54:59.478Z,98935.55
2018-12-24T17:57:32.608Z,98931.57
2018-12-24T18:00:07.298Z,98934.59
2018-12-24T18:02:40.657Z,98936.59
2018-12-24T18:05:14.481Z,98940.97
2018-12-24T18:07:47.748Z,98935.83
2018-12-24T18:10:20.934Z,98936.00
2018-12-24T18:12:53.820Z,98936.83
2018-12-24T18:15:29.914Z,98932.23
2018-12-24T18:18:02.857Z,98930.73
2018-12-24T18:20:35.845Z,98929.88
2018-12-24T18:23:09.001Z,98929.00
2018-12-24T18:25:42.497Z,98934.84
2018-12-24T18:28:15.789Z,98937.75
2018-12-24T18:30:48.695Z,98933.77
2018-12-24T18:33:21.615Z,98934.59
2018-12-24T18:35:54.520Z,98938.80
2018-12-24T18:38:27.844Z,98936.03
2018-12-24T18:41:00.977Z,98931.48
2018-12-24T18:43:33.899Z,98932.56
2018-12-24T18:46:07.187Z,98935.12
2018-12-24T18:48:40.321Z,98927.58
2018-12-24T18:51:13.439Z,98934.77
2018-12-24T18:53:46.384Z,98927.36
2018-12-24T18:56:19.534Z,98925.70
2018-12-24T18:58:52.834Z,98928.86
2018-12-24T19:01:26.171Z,98926.09
2018-12-24T19:03:59.678Z,98926.63
2018-12-24T19:06:32.415Z,98910.68
2018-12-24T19:09:06.846Z,98917.64
2018-12-24T19:11:41.969Z,98917.64
2018-12-24T19:14:14.927Z,98916.39
2018-12-24T19:16:47.974Z,98913.58
2018-12-24T19:19:21.000Z,98899.05
2018-12-24T19:21:54.154Z,98904.54
2018-12-24T19:24:27.158Z,98904.43
2018-12-24T19:27:00.175Z,98906.08
2018-12-24T19:29:32.961Z,98905.92
2018-12-24T19:32:06.426Z,98905.81
2018-12-24T19:34:39.487Z,98908.44
2018-12-24T19:37:12.518Z,98904.46
2018-12-24T19:39:45.576Z,98910.75
2018-12-24T19:42:18.382Z,98904.95
2018-12-24T19:44:51.409Z,98906.75
2018-12-24T19:47:24.625Z,98903.13
2018-12-24T19:49:58.059Z,98911.30
2018-12-24T19:52:31.101Z,98901.67
2018-12-24T19:55:04.048Z,98901.51
2018-12-24T19:57:36.845Z,98892.70
2018-12-24T20:00:10.878Z,98900.69
2018-12-24T20:02:44.062Z,98895.69
2018-12-24T20:05:17.159Z,98894.98
2018-12-24T20:07:50.516Z,98898.09
2018-12-24T20:10:23.387Z,98892.77
2018-12-24T20:12:57.275Z,98894.02
2018-12-24T20:15:31.013Z,98883.36
2018-12-24T20:18:04.015Z,98891.22
2018-12-24T20:20:37.397Z,98894.52
2018-12-24T20:23:10.823Z,98898.73
2018-12-24T20:25:43.967Z,98908.18
2018-12-24T20:28:17.386Z,98912.18
2018-12-24T20:30:50.594Z,98910.42
2018-12-24T20:33:23.733Z,98904.83
2018-12-24T20:35:56.990Z,98907.08
2018-12-24T20:38:36.986Z,98902.75
2018-12-24T20:41:04.093Z,98898.42
2018-12-24T20:43:37.465Z,98900.41
2018-12-24T20:46:12.817Z,98906.86
2018-12-24T20:48:46.044Z,98906.03
2018-12-24T20:51:19.087Z,98901.38
2018-12-24T20:53:52.070Z,98908.45
2018-12-24T20:56:25.203Z,98901.75
2018-12-24T20:58:58.270Z,98911.37
2018-12-24T21:01:31.285Z,98917.25
2018-12-24T21:04:04.346Z,98927.36
2018-12-24T21:06:37.281Z,98928.09
2018-12-24T21:09:10.227Z,98927.70
2018-12-24T21:11:43.390Z,98934.31
2018-12-24T21:14:16.372Z,98936.50
2018-12-24T21:16:52.715Z,98943.98
2018-12-24T21:19:25.906Z,98946.62
2018-12-24T21:21:59.185Z,98945.38
2018-12-24T21:24:32.163Z,98946.39
2018-12-24T21:27:05.528Z,98947.31
2018-12-24T21:29:38.684Z,98956.92
2018-12-24T21:32:11.740Z,98959.73
2018-12-24T21:34:44.693Z,98961.80
2018-12-24T21:37:17.678Z,98963.67
2018-12-24T21:39:50.539Z,98971.27
2018-12-24T21:42:29.698Z,98968.23
2018-12-24T21:45:02.752Z,98963.43
2018-12-24T21:47:35.601Z,98964.07
2018-12-24T21:50:08.506Z,98967.16
2018-12-24T21:52:41.592Z,98973.95
2018-12-24T21:55:14.445Z,98973.49
2018-12-24T21:57:47.554Z,98987.31
2018-12-24T22:00:20.761Z,99001.02
2018-12-24T22:02:53.752Z,99000.89
2018-12-24T22:05:26.693Z,99006.39
2018-12-24T22:07:59.807Z,99007.40
2018-12-24T22:10:32.804Z,98999.16
2018-12-24T22:13:05.697Z,99003.05
2018-12-24T22:15:38.678Z,99010.17
2018-12-24T22:18:11.903Z,99005.34
2018-12-24T22:20:45.317Z,99010.17
2018-12-24T22:23:18.333Z,99021.34
2018-12-24T22:25:51.257Z,99026.08
2018-12-24T22:28:24.476Z,99041.86
2018-12-24T22:30:57.525Z,99046.91
2018-12-24T22:33:30.587Z,99047.42
2018-12-24T22:36:03.250Z,99051.91
2018-12-24T22:38:36.433Z,99062.14
2018-12-24T22:41:10.060Z,99054.56
2018-12-24T22:43:43.096Z,99055.30
2018-12-24T22:46:16.064Z,99060.61
2018-12-24T22:48:49.045Z,99064.78
2018-12-24T22:51:22.059Z,99071.75
2018-12-24T22:53:55.135Z,99068.44
2018-12-24T22:56:28.197Z,99078.34
2018-12-24T22:59:01.227Z,99094.47
2018-12-24T23:01:34.326Z,99099.73
2018-12-24T23:04:07.065Z,99108.83
2018-12-24T23:06:40.040Z,99108.83
2018-12-24T23:09:13.354Z,99118.89
2018-12-24T23:11:46.841Z,99120.61
2018-12-24T23:14:19.913Z,99127.31
2018-12-24T23:16:53.085Z,99129.03
2018-12-24T23:19:26.256Z,99128.69
2018-12-24T23:21:59.318Z,99133.95
2018-12-24T23:24:32.191Z,99143.36
2018-12-24T23:27:05.208Z,99151.17
2018-12-24T23:29:38.296Z,99150.81
2018-12-24T23:32:11.551Z,99165.09
2018-12-24T23:34:44.253Z,99172.84
2018-12-24T23:37:17.283Z,99183.84
2018-12-24T23:39:50.354Z,99179.20
2018-12-24T23:42:23.334Z,99186.16
2018-12-24T23:44:56.414Z,99193.19
2018-12-24T23:47:29.433Z,99201.88
2018-12-24T23:50:02.171Z,99207.66
2018-12-24T23:52:35.775Z,99209.15
2018-12-24T23:55:09.520Z,99216.98
2018-12-24T23:57:42.618Z,99222.23
